Time;durP1;ratioP1;P1;durP2;ratioP2;P2;SDS_P1;SDS_P2;PMS_P1;PMS_P2;Temp;Humidity;BMP_temperature;BMP_pressure;BME280_temperature;BME280_humidity;BME280_pressure;Samples;Min_cycle;Max_cycle;Signal;HPM_P1;HPM_P2
2023/04/14 00:00:56;;;;;;;2.72;2.45;;;;;;;;;;5072972;28;20024;-63
2023/04/14 00:03:21;;;;;;;2.58;2.38;;;;;;;;;;5072539;28;20468;-63
2023/04/14 00:05:47;;;;;;;3.40;2.83;;;;;;;;;;5072873;28;20028;-63
2023/04/14 00:08:12;;;;;;;3.10;2.80;;;;;;;;;;5072881;28;20102;-63
2023/04/14 00:10:38;;;;;;;2.60;2.40;;;;;;;;;;5072572;28;20533;-63
2023/04/14 00:13:03;;;;;;;2.95;2.50;;;;;;;;;;5072435;28;20086;-63
2023/04/14 00:15:29;;;;;;;3.00;2.60;;;;;;;;;;5054609;28;20028;-63
2023/04/14 00:17:54;;;;;;;3.00;2.67;;;;;;;;;;5072378;28;20455;-63
2023/04/14 00:20:20;;;;;;;2.90;2.70;;;;;;;;;;5088355;28;20024;-63
2023/04/14 00:22:45;;;;;;;3.17;2.58;;;;;;;;;;5072296;28;20365;-63
2023/04/14 00:25:11;;;;;;;2.92;2.60;;;;;;;;;;5072621;28;20064;-63
2023/04/14 00:27:37;;;;;;;2.95;2.60;;;;;;;;;;5072270;28;20033;-63
2023/04/14 00:30:02;;;;;;;3.03;2.53;;;;;;;;;;5072285;28;20023;-63
2023/04/14 00:32:28;;;;;;;3.00;2.63;;;;;;;;;;5071948;28;20052;-63
2023/04/14 00:34:55;;;;;;;2.88;2.60;;;;;;;;;;5072300;28;20020;-63
2023/04/14 00:37:22;;;;;;;3.10;2.80;;;;;;;;;;5072284;28;20020;-63
2023/04/14 00:39:47;;;;;;;3.08;2.78;;;;;;;;;;5072225;28;20020;-63
2023/04/14 00:42:13;;;;;;;3.38;2.80;;;;;;;;;;5072021;28;20051;-63
2023/04/14 00:44:38;;;;;;;2.95;2.65;;;;;;;;;;5072369;28;20028;-63
2023/04/14 00:47:04;;;;;;;4.38;2.78;;;;;;;;;;5072037;28;20147;-63
2023/04/14 00:49:30;;;;;;;2.83;2.50;;;;;;;;;;5072353;28;20032;-63
2023/04/14 00:51:56;;;;;;;3.55;2.70;;;;;;;;;;5072276;28;20021;-63
2023/04/14 00:54:22;;;;;;;3.15;2.85;;;;;;;;;;5072051;28;20029;-63
2023/04/14 00:56:50;;;;;;;3.10;2.80;;;;;;;;;;5072062;28;20030;-63
2023/04/14 00:59:16;;;;;;;3.10;2.80;;;;;;;;;;5072074;28;20448;-63
2023/04/14 01:01:42;;;;;;;2.92;2.60;;;;;;;;;;5071994;28;20081;-63
2023/04/14 01:04:08;;;;;;;3.17;2.78;;;;;;;;;;5071843;28;20032;-63
2023/04/14 01:06:33;;;;;;;3.00;2.63;;;;;;;;;;5072045;28;20141;-63
2023/04/14 01:08:59;;;;;;;3.00;2.78;;;;;;;;;;5072191;28;20027;-63
2023/04/14 01:11:49;;;;;;;2.72;2.45;;;;;;;;;;5071970;28;20024;-64
2023/04/14 01:14:49;;;;;;;5.25;2.72;;;;;;;;;;5072206;28;20085;-63
2023/04/14 01:17:33;;;;;;;3.28;2.42;;;;;;;;;;5072193;28;20032;-63
2023/04/14 01:20:21;;;;;;;2.70;2.50;;;;;;;;;;5086474;28;20463;-63
2023/04/14 01:22:53;;;;;;;3.15;2.50;;;;;;;;;;5071765;28;20023;-63
2023/04/14 01:25:37;;;;;;;3.25;2.78;;;;;;;;;;5072140;28;20116;-62
2023/04/14 01:28:27;;;;;;;3.20;2.90;;;;;;;;;;5087410;28;20028;-63
2023/04/14 01:31:10;;;;;;;3.13;2.83;;;;;;;;;;5071851;28;20035;-63
2023/04/14 01:33:40;;;;;;;2.67;2.47;;;;;;;;;;5071604;28;20048;-63
2023/04/14 01:36:12;;;;;;;4.03;2.90;;;;;;;;;;5071653;28;20542;-63
2023/04/14 01:38:39;;;;;;;3.40;2.60;;;;;;;;;;5071941;28;20081;-63
2023/04/14 01:41:07;;;;;;;3.13;2.80;;;;;;;;;;5070168;28;20055;-63
2023/04/14 01:43:37;;;;;;;2.90;2.70;;;;;;;;;;5071490;28;20573;-62
2023/04/14 01:46:07;;;;;;;2.80;2.60;;;;;;;;;;5072747;28;20047;-63
2023/04/14 01:48:33;;;;;;;3.35;2.70;;;;;;;;;;5091122;28;20388;-63
2023/04/14 01:51:01;;;;;;;3.28;2.95;;;;;;;;;;5075396;28;20021;-62
2023/04/14 01:53:29;;;;;;;3.00;2.80;;;;;;;;;;5075036;28;20021;-63
2023/04/14 01:55:55;;;;;;;3.70;2.83;;;;;;;;;;5074935;28;20468;-63
2023/04/14 01:58:22;;;;;;;2.83;2.53;;;;;;;;;;5073510;28;20028;-63
2023/04/14 02:00:49;;;;;;;3.15;2.85;;;;;;;;;;5074948;28;20543;-63
2023/04/14 02:03:17;;;;;;;4.82;3.00;;;;;;;;;;5074767;28;20067;-63
2023/04/14 02:05:44;;;;;;;3.22;2.92;;;;;;;;;;5074747;28;20028;-63
2023/04/14 02:08:12;;;;;;;3.00;2.70;;;;;;;;;;5074775;28;20024;-63
2023/04/14 02:10:41;;;;;;;2.72;2.50;;;;;;;;;;5074720;28;20028;-63
2023/04/14 02:13:07;;;;;;;3.17;2.88;;;;;;;;;;5074580;28;20503;-63
2023/04/14 02:15:34;;;;;;;2.97;2.75;;;;;;;;;;5075000;28;20028;-62
2023/04/14 02:18:03;;;;;;;3.40;2.80;;;;;;;;;;5074546;28;20506;-62
2023/04/14 02:20:28;;;;;;;3.17;2.87;;;;;;;;;;5074891;28;20024;-63
2023/04/14 02:22:54;;;;;;;3.25;2.92;;;;;;;;;;5074714;28;20097;-62
2023/04/14 02:25:24;;;;;;;3.10;2.80;;;;;;;;;;5074693;28;20422;-63
2023/04/14 02:27:57;;;;;;;3.17;2.90;;;;;;;;;;5074772;28;20031;-63
2023/04/14 02:30:37;;;;;;;3.40;3.10;;;;;;;;;;5074406;28;20039;-63
2023/04/14 02:33:06;;;;;;;3.13;2.83;;;;;;;;;;5074180;28;20131;-63
2023/04/14 02:35:46;;;;;;;4.28;2.92;;;;;;;;;;5074287;28;20029;-62
2023/04/14 02:38:22;;;;;;;3.20;2.67;;;;;;;;;;5074327;28;20028;-62
2023/04/14 02:40:48;;;;;;;3.30;2.72;;;;;;;;;;5074410;28;20017;-62
2023/04/14 02:43:25;;;;;;;3.90;2.72;;;;;;;;;;5074060;28;20028;-62
2023/04/14 02:45:53;;;;;;;3.72;2.90;;;;;;;;;;5074351;28;20029;-63
2023/04/14 02:48:22;;;;;;;3.10;2.83;;;;;;;;;;5074055;28;20025;-62
2023/04/14 02:50:51;;;;;;;3.10;2.90;;;;;;;;;;5074001;28;20052;-63
2023/04/14 02:53:21;;;;;;;2.92;2.72;;;;;;;;;;5074203;28;20036;-62
2023/04/14 02:55:49;;;;;;;2.95;2.72;;;;;;;;;;5074167;28;20020;-62
2023/04/14 02:58:15;;;;;;;3.05;2.78;;;;;;;;;;5073987;28;20029;-62
2023/04/14 03:00:42;;;;;;;2.85;2.65;;;;;;;;;;5073767;28;20458;-62
2023/04/14 03:03:11;;;;;;;3.05;2.75;;;;;;;;;;5073674;28;20036;-62
2023/04/14 03:05:38;;;;;;;3.05;2.65;;;;;;;;;;5073660;28;20036;-62
2023/04/14 03:08:04;;;;;;;3.38;2.80;;;;;;;;;;5073633;28;20025;-62
2023/04/14 03:10:32;;;;;;;2.95;2.67;;;;;;;;;;5073557;28;20013;-62
2023/04/14 03:13:00;;;;;;;3.00;2.70;;;;;;;;;;5073529;28;20516;-62
2023/04/14 03:15:26;;;;;;;3.00;2.70;;;;;;;;;;5073449;28;20029;-62
2023/04/14 03:17:56;;;;;;;2.80;2.55;;;;;;;;;;5073390;28;20036;-62
2023/04/14 03:20:22;;;;;;;3.53;3.22;;;;;;;;;;5073644;28;20064;-62
2023/04/14 03:23:03;;;;;;;3.17;2.88;;;;;;;;;;5073482;28;20040;-62
2023/04/14 03:25:31;;;;;;;3.28;2.60;;;;;;;;;;5073257;28;20020;-62
2023/04/14 03:28:01;;;;;;;3.25;2.75;;;;;;;;;;5073110;28;20491;-62
2023/04/14 03:30:30;;;;;;;3.00;2.70;;;;;;;;;;5073190;28;20028;-62
2023/04/14 03:33:03;;;;;;;3.75;3.00;;;;;;;;;;5073083;28;20045;-62
2023/04/14 03:35:29;;;;;;;2.72;2.47;;;;;;;;;;5073110;28;20021;-62
2023/04/14 03:37:58;;;;;;;3.63;2.90;;;;;;;;;;5073332;28;20028;-62
2023/04/14 03:40:30;;;;;;;3.30;2.63;;;;;;;;;;5072869;28;20036;-63
2023/04/14 03:42:57;;;;;;;3.67;2.90;;;;;;;;;;5073241;28;20060;-62
2023/04/14 03:45:25;;;;;;;3.33;2.88;;;;;;;;;;5088587;28;20034;-62
2023/04/14 03:47:56;;;;;;;3.28;2.83;;;;;;;;;;5072969;28;20024;-63
2023/04/14 03:50:24;;;;;;;5.50;3.08;;;;;;;;;;5072802;28;20032;-63
2023/04/14 03:52:50;;;;;;;3.20;2.80;;;;;;;;;;5072794;28;20499;-62
2023/04/14 03:55:17;;;;;;;3.20;2.90;;;;;;;;;;5072727;28;20029;-63
2023/04/14 03:57:45;;;;;;;3.30;3.00;;;;;;;;;;5072990;28;20027;-62
2023/04/14 04:00:12;;;;;;;3.22;2.92;;;;;;;;;;5054755;28;20025;-62
2023/04/14 04:02:39;;;;;;;3.08;2.78;;;;;;;;;;5072605;28;20056;-62
2023/04/14 04:05:06;;;;;;;3.10;2.80;;;;;;;;;;5072579;28;20025;-62
2023/04/14 04:07:34;;;;;;;3.15;2.72;;;;;;;;;;5054634;28;20021;-62
2023/04/14 04:10:03;;;;;;;3.15;2.85;;;;;;;;;;5072116;28;20025;-62
2023/04/14 04:12:30;;;;;;;2.88;2.65;;;;;;;;;;5072876;28;20032;-62
2023/04/14 04:14:55;;;;;;;3.53;3.17;;;;;;;;;;5072217;28;20021;-62
2023/04/14 04:17:22;;;;;;;2.88;2.60;;;;;;;;;;5070873;28;20078;-63
2023/04/14 04:19:49;;;;;;;2.90;2.70;;;;;;;;;;5071609;28;20104;-62
2023/04/14 04:22:17;;;;;;;3.22;2.92;;;;;;;;;;5070399;28;20033;-62
2023/04/14 04:24:44;;;;;;;3.30;2.80;;;;;;;;;;5070377;28;20300;-63
2023/04/14 04:27:10;;;;;;;3.83;2.90;;;;;;;;;;5070363;28;20032;-63
2023/04/14 04:29:37;;;;;;;4.05;2.83;;;;;;;;;;5070417;28;20039;-63
2023/04/14 04:32:05;;;;;;;3.10;2.78;;;;;;;;;;5070402;28;20182;-62
2023/04/14 04:34:31;;;;;;;3.22;2.72;;;;;;;;;;5070304;28;20032;-63
2023/04/14 04:37:00;;;;;;;2.83;2.63;;;;;;;;;;5071015;28;20029;-63
2023/04/14 04:39:25;;;;;;;3.10;2.80;;;;;;;;;;5072246;28;20027;-63
2023/04/14 04:42:01;;;;;;;3.75;3.08;;;;;;;;;;5072075;28;20025;-63
2023/04/14 04:44:26;;;;;;;3.00;2.45;;;;;;;;;;5072226;28;20476;-63
2023/04/14 04:46:53;;;;;;;3.38;2.55;;;;;;;;;;5072083;28;20032;-63
2023/04/14 04:49:19;;;;;;;3.15;2.58;;;;;;;;;;5072474;28;20479;-63
2023/04/14 04:51:45;;;;;;;3.13;2.83;;;;;;;;;;5072030;28;20124;-63
2023/04/14 04:54:11;;;;;;;2.75;2.55;;;;;;;;;;5072326;28;20112;-63
2023/04/14 04:56:37;;;;;;;3.13;2.80;;;;;;;;;;5072019;28;20426;-63
2023/04/14 04:59:03;;;;;;;4.00;2.80;;;;;;;;;;5072360;28;20055;-62
2023/04/14 05:01:28;;;;;;;2.90;2.70;;;;;;;;;;5071849;28;20042;-63
2023/04/14 05:03:54;;;;;;;3.40;2.53;;;;;;;;;;5072196;28;20031;-62
2023/04/14 05:06:20;;;;;;;3.03;2.72;;;;;;;;;;5072171;28;20031;-63
2023/04/14 05:08:46;;;;;;;3.10;2.80;;;;;;;;;;5072021;28;20516;-62
2023/04/14 05:11:11;;;;;;;3.03;2.72;;;;;;;;;;5072090;28;20029;-63
2023/04/14 05:13:37;;;;;;;3.20;2.90;;;;;;;;;;5071883;28;20029;-63
2023/04/14 05:16:10;;;;;;;3.03;2.72;;;;;;;;;;5072003;28;20059;-62
2023/04/14 05:18:36;;;;;;;2.72;2.53;;;;;;;;;;5071857;28;20111;-63
2023/04/14 05:21:03;;;;;;;3.00;2.80;;;;;;;;;;5072469;28;20028;-63
2023/04/14 05:23:31;;;;;;;2.90;2.70;;;;;;;;;;5075842;28;20032;-63
2023/04/14 05:25:57;;;;;;;2.72;2.53;;;;;;;;;;5090964;28;20077;-63
2023/04/14 05:28:25;;;;;;;2.85;2.65;;;;;;;;;;5075822;28;20028;-64
2023/04/14 05:30:51;;;;;;;2.70;2.50;;;;;;;;;;5090625;28;20036;-65
2023/04/14 05:33:16;;;;;;;2.80;2.60;;;;;;;;;;5075327;28;20049;-63
2023/04/14 05:35:43;;;;;;;2.95;2.60;;;;;;;;;;5075470;28;20031;-63
2023/04/14 05:38:09;;;;;;;3.00;2.78;;;;;;;;;;5075658;28;20032;-63
2023/04/14 05:40:35;;;;;;;2.95;2.75;;;;;;;;;;5075546;28;20027;-63
2023/04/14 05:43:01;;;;;;;3.10;2.80;;;;;;;;;;5091282;28;20388;-64
2023/04/14 05:45:27;;;;;;;2.95;2.75;;;;;;;;;;5075344;28;20021;-63
2023/04/14 05:47:52;;;;;;;2.63;2.42;;;;;;;;;;5075458;28;20118;-63
2023/04/14 05:50:18;;;;;;;2.65;2.40;;;;;;;;;;5057273;28;20054;-63
2023/04/14 05:52:43;;;;;;;3.20;2.90;;;;;;;;;;5074039;28;20032;-63
2023/04/14 05:55:10;;;;;;;3.05;2.55;;;;;;;;;;5075339;28;20139;-63
2023/04/14 05:57:35;;;;;;;3.05;2.75;;;;;;;;;;5090710;28;20028;-63
2023/04/14 06:00:01;;;;;;;2.70;2.50;;;;;;;;;;5090861;28;20086;-63
2023/04/14 06:02:27;;;;;;;2.85;2.60;;;;;;;;;;5074835;28;20055;-63
2023/04/14 06:04:52;;;;;;;2.63;2.42;;;;;;;;;;5074848;28;20028;-63
2023/04/14 06:07:18;;;;;;;2.90;2.70;;;;;;;;;;5074758;28;20388;-63
2023/04/14 06:09:45;;;;;;;3.03;2.72;;;;;;;;;;5074722;28;20017;-63
2023/04/14 06:12:12;;;;;;;3.25;2.47;;;;;;;;;;5075000;28;20032;-63
2023/04/14 06:14:38;;;;;;;3.00;2.65;;;;;;;;;;5074681;28;20166;-63
2023/04/14 06:17:04;;;;;;;4.13;2.80;;;;;;;;;;5074932;28;20104;-63
2023/04/14 06:19:29;;;;;;;2.78;2.58;;;;;;;;;;5074458;28;20461;-63
2023/04/14 06:21:55;;;;;;;3.22;2.45;;;;;;;;;;5073655;28;20039;-63
2023/04/14 06:24:20;;;;;;;3.15;2.85;;;;;;;;;;5074263;28;20549;-63
2023/04/14 06:26:46;;;;;;;3.08;2.80;;;;;;;;;;5074372;28;20027;-64
2023/04/14 06:29:12;;;;;;;4.38;2.70;;;;;;;;;;5074373;28;20032;-63
2023/04/14 06:31:37;;;;;;;3.17;2.75;;;;;;;;;;5073476;28;20048;-63
2023/04/14 06:34:03;;;;;;;2.95;2.65;;;;;;;;;;5074605;28;20100;-64
2023/04/14 06:36:28;;;;;;;3.83;2.72;;;;;;;;;;5074620;28;20032;-64
2023/04/14 06:38:55;;;;;;;3.30;2.72;;;;;;;;;;5074497;28;20488;-65
2023/04/14 06:41:21;;;;;;;2.60;2.40;;;;;;;;;;5074203;28;20035;-63
2023/04/14 06:43:46;;;;;;;3.22;2.83;;;;;;;;;;5074382;28;20033;-64
2023/04/14 06:46:12;;;;;;;2.92;2.72;;;;;;;;;;5074064;28;20127;-63
2023/04/14 06:48:38;;;;;;;3.53;2.63;;;;;;;;;;5074243;28;20036;-63
2023/04/14 06:51:03;;;;;;;2.83;2.63;;;;;;;;;;5074014;28;20468;-63
2023/04/14 06:53:29;;;;;;;2.95;2.60;;;;;;;;;;5055865;28;20021;-63
2023/04/14 06:56:04;;;;;;;3.42;2.80;;;;;;;;;;5074076;28;20031;-63
2023/04/14 06:58:30;;;;;;;2.92;2.55;;;;;;;;;;5073765;28;20020;-63
2023/04/14 07:00:57;;;;;;;3.00;2.70;;;;;;;;;;5077002;28;20115;-64
2023/04/14 07:03:23;;;;;;;2.83;2.63;;;;;;;;;;5087326;28;20473;-64
2023/04/14 07:05:49;;;;;;;4.10;2.75;;;;;;;;;;5089237;28;20088;-63
2023/04/14 07:08:15;;;;;;;2.90;2.40;;;;;;;;;;5086180;28;20027;-63
2023/04/14 07:10:41;;;;;;;3.05;2.75;;;;;;;;;;5073953;28;20480;-62
2023/04/14 07:13:06;;;;;;;2.72;2.53;;;;;;;;;;5092416;28;20043;-63
2023/04/14 07:15:32;;;;;;;2.88;2.67;;;;;;;;;;5091975;28;20530;-63
2023/04/14 07:17:58;;;;;;;3.42;2.95;;;;;;;;;;5091934;28;20069;-63
2023/04/14 07:20:24;;;;;;;3.28;2.83;;;;;;;;;;5092080;28;20050;-63
2023/04/14 07:22:50;;;;;;;4.18;2.80;;;;;;;;;;5091739;28;20024;-64
2023/04/14 07:25:15;;;;;;;3.67;2.80;;;;;;;;;;5092309;28;20032;-63
2023/04/14 07:27:41;;;;;;;3.65;2.70;;;;;;;;;;5091995;28;20024;-63
2023/04/14 07:30:07;;;;;;;2.95;2.60;;;;;;;;;;5092032;28;20354;-64
2023/04/14 07:32:32;;;;;;;2.90;2.60;;;;;;;;;;5091206;28;20050;-64
2023/04/14 07:34:58;;;;;;;3.30;2.53;;;;;;;;;;5089507;28;20399;-64
2023/04/14 07:37:24;;;;;;;2.95;2.60;;;;;;;;;;5072655;28;20077;-64
2023/04/14 07:39:50;;;;;;;3.17;2.88;;;;;;;;;;5068598;28;20043;-64
2023/04/14 07:42:15;;;;;;;3.47;2.63;;;;;;;;;;5088668;28;20500;-64
2023/04/14 07:44:41;;;;;;;3.67;2.50;;;;;;;;;;5090802;28;20142;-63
2023/04/14 07:47:07;;;;;;;2.80;2.60;;;;;;;;;;5091896;28;20035;-63
2023/04/14 07:49:32;;;;;;;2.90;2.60;;;;;;;;;;5091334;28;20067;-63
2023/04/14 07:52:01;;;;;;;3.13;2.78;;;;;;;;;;5091736;28;20054;-64
2023/04/14 07:54:27;;;;;;;4.35;2.90;;;;;;;;;;5071271;28;20040;-65
2023/04/14 07:56:53;;;;;;;4.95;2.78;;;;;;;;;;5091370;28;20085;-65
2023/04/14 07:59:19;;;;;;;4.18;3.00;;;;;;;;;;5072966;28;20075;-64
2023/04/14 08:01:45;;;;;;;3.33;2.90;;;;;;;;;;5091642;28;20055;-65
2023/04/14 08:04:11;;;;;;;2.80;2.60;;;;;;;;;;5091055;28;20373;-64
2023/04/14 08:06:36;;;;;;;3.08;2.80;;;;;;;;;;5091215;28;20027;-64
2023/04/14 08:09:02;;;;;;;3.20;2.90;;;;;;;;;;5091199;28;20024;-65
2023/04/14 08:11:28;;;;;;;3.38;3.05;;;;;;;;;;5086720;28;20465;-65
2023/04/14 08:13:53;;;;;;;3.47;2.90;;;;;;;;;;5071043;28;20036;-64
2023/04/14 08:16:19;;;;;;;3.00;2.60;;;;;;;;;;5070812;28;20028;-64
2023/04/14 08:18:44;;;;;;;3.05;2.72;;;;;;;;;;5070977;28;20028;-65
2023/04/14 08:21:10;;;;;;;3.38;2.67;;;;;;;;;;5071000;28;20032;-64
2023/04/14 08:23:36;;;;;;;3.08;2.75;;;;;;;;;;5070717;28;20032;-65
2023/04/14 08:26:03;;;;;;;3.33;2.70;;;;;;;;;;5090163;28;20032;-63
2023/04/14 08:28:29;;;;;;;4.88;2.92;;;;;;;;;;5076847;28;20364;-63
2023/04/14 08:30:54;;;;;;;2.85;2.55;;;;;;;;;;5095282;28;20032;-63
2023/04/14 08:33:20;;;;;;;2.78;2.58;;;;;;;;;;5088208;28;20086;-63
2023/04/14 08:35:46;;;;;;;4.28;2.67;;;;;;;;;;5090017;28;20408;-63
2023/04/14 08:38:11;;;;;;;3.63;3.03;;;;;;;;;;5090661;28;20057;-64
2023/04/14 08:40:42;;;;;;;3.13;2.80;;;;;;;;;;5075138;28;20025;-64
2023/04/14 08:43:09;;;;;;;3.00;2.70;;;;;;;;;;5070496;28;20534;-63
2023/04/14 08:45:35;;;;;;;3.50;2.83;;;;;;;;;;5072808;28;20510;-63
2023/04/14 08:48:02;;;;;;;3.10;2.80;;;;;;;;;;5090498;28;20095;-64
2023/04/14 08:50:36;;;;;;;3.20;2.72;;;;;;;;;;5090669;28;20468;-63
2023/04/14 08:53:08;;;;;;;2.70;2.50;;;;;;;;;;5057840;28;20028;-63
2023/04/14 08:55:39;;;;;;;2.95;2.65;;;;;;;;;;5072142;28;20430;-64
2023/04/14 08:58:06;;;;;;;4.13;3.13;;;;;;;;;;5074444;28;20028;-65
2023/04/14 09:00:33;;;;;;;3.00;2.70;;;;;;;;;;5074340;28;20073;-64
2023/04/14 09:02:59;;;;;;;4.15;2.95;;;;;;;;;;5087896;28;20458;-64
2023/04/14 09:05:25;;;;;;;3.75;2.95;;;;;;;;;;5074482;28;20120;-64
2023/04/14 09:07:52;;;;;;;3.05;2.75;;;;;;;;;;5065043;28;20147;-64
2023/04/14 09:10:19;;;;;;;5.40;2.80;;;;;;;;;;5090851;28;20028;-64
2023/04/14 09:12:47;;;;;;;3.00;2.60;;;;;;;;;;5093423;28;20127;-64
2023/04/14 09:15:13;;;;;;;2.85;2.47;;;;;;;;;;5093356;28;20126;-65
2023/04/14 09:17:38;;;;;;;3.10;2.75;;;;;;;;;;5094352;28;20482;-63
2023/04/14 09:20:05;;;;;;;2.85;2.60;;;;;;;;;;5094114;28;20031;-63
2023/04/14 09:22:31;;;;;;;3.05;2.80;;;;;;;;;;5093170;28;20032;-63
2023/04/14 09:24:57;;;;;;;3.17;2.90;;;;;;;;;;5094191;28;20024;-63
2023/04/14 09:27:22;;;;;;;4.00;2.92;;;;;;;;;;5094151;28;20077;-63
2023/04/14 09:29:49;;;;;;;2.90;2.70;;;;;;;;;;5094334;28;20051;-63
2023/04/14 09:32:14;;;;;;;5.57;3.15;;;;;;;;;;5093581;28;20095;-63
2023/04/14 09:34:53;;;;;;;3.00;2.70;;;;;;;;;;5094505;28;20024;-63
2023/04/14 09:37:20;;;;;;;3.40;2.90;;;;;;;;;;5093936;28;20036;-63
2023/04/14 09:39:53;;;;;;;3.42;2.85;;;;;;;;;;5093873;28;20051;-64
2023/04/14 09:42:18;;;;;;;4.32;3.40;;;;;;;;;;5094100;28;20032;-63
2023/04/14 09:45:03;;;;;;;2.85;2.50;;;;;;;;;;5094105;28;20128;-62
2023/04/14 09:47:30;;;;;;;3.08;2.75;;;;;;;;;;5093731;28;20031;-63
2023/04/14 09:49:58;;;;;;;3.55;3.17;;;;;;;;;;5093917;28;20026;-63
2023/04/14 09:52:43;;;;;;;4.15;3.13;;;;;;;;;;5093693;28;20032;-64
2023/04/14 09:55:13;;;;;;;3.35;3.03;;;;;;;;;;5093987;28;20047;-65
2023/04/14 09:57:46;;;;;;;3.30;3.00;;;;;;;;;;5093914;28;20095;-63
2023/04/14 10:00:14;;;;;;;4.80;2.90;;;;;;;;;;5093324;28;20036;-62
2023/04/14 10:03:00;;;;;;;3.22;2.92;;;;;;;;;;5093787;28;20039;-63
2023/04/14 10:05:30;;;;;;;3.80;2.75;;;;;;;;;;5093401;28;20468;-63
2023/04/14 10:08:02;;;;;;;3.58;3.20;;;;;;;;;;5093020;28;20421;-63
2023/04/14 10:10:28;;;;;;;3.22;2.92;;;;;;;;;;5093135;28;20460;-63
2023/04/14 10:12:53;;;;;;;3.47;2.78;;;;;;;;;;5093307;28;20042;-63
2023/04/14 10:15:20;;;;;;;3.70;3.10;;;;;;;;;;5093577;28;20032;-64
2023/04/14 10:17:46;;;;;;;3.42;2.70;;;;;;;;;;5093516;28;20050;-64
2023/04/14 10:20:11;;;;;;;3.38;3.08;;;;;;;;;;5092903;28;20488;-63
2023/04/14 10:22:37;;;;;;;4.63;3.15;;;;;;;;;;5093376;28;20035;-64
2023/04/14 10:25:04;;;;;;;4.22;3.33;;;;;;;;;;5092984;28;20541;-64
2023/04/14 10:27:32;;;;;;;3.50;3.05;;;;;;;;;;5071788;28;20073;-64
2023/04/14 10:29:58;;;;;;;3.28;2.92;;;;;;;;;;5080167;28;20052;-64
2023/04/14 10:32:29;;;;;;;3.70;3.30;;;;;;;;;;5089967;28;20048;-64
2023/04/14 10:35:01;;;;;;;4.47;3.03;;;;;;;;;;5093271;28;20054;-64
2023/04/14 10:37:26;;;;;;;3.47;2.97;;;;;;;;;;5093130;28;20028;-64
2023/04/14 10:39:56;;;;;;;3.55;3.20;;;;;;;;;;5092718;28;20074;-65
2023/04/14 10:42:23;;;;;;;3.38;3.08;;;;;;;;;;5092635;28;20421;-64
2023/04/14 10:45:06;;;;;;;3.28;2.90;;;;;;;;;;5092740;28;20040;-64
2023/04/14 10:47:34;;;;;;;3.45;2.90;;;;;;;;;;5092851;28;20028;-64
2023/04/14 10:50:12;;;;;;;3.58;2.92;;;;;;;;;;5092822;28;20024;-64
2023/04/14 10:52:48;;;;;;;4.03;3.60;;;;;;;;;;5092684;28;20031;-64
2023/04/14 10:55:14;;;;;;;3.40;2.92;;;;;;;;;;5092590;28;20020;-64
2023/04/14 10:57:42;;;;;;;3.30;3.00;;;;;;;;;;5092568;28;20081;-65
2023/04/14 11:00:30;;;;;;;3.50;3.15;;;;;;;;;;5092286;28;20089;-64
2023/04/14 11:02:57;;;;;;;3.50;3.20;;;;;;;;;;5092313;28;20050;-64
2023/04/14 11:05:23;;;;;;;3.42;3.13;;;;;;;;;;5092604;28;20111;-65
2023/04/14 11:07:54;;;;;;;3.30;3.00;;;;;;;;;;5092349;28;20531;-64
2023/04/14 11:10:20;;;;;;;4.03;3.08;;;;;;;;;;5092074;28;20024;-63
2023/04/14 11:12:47;;;;;;;4.38;3.17;;;;;;;;;;5092556;28;20032;-64
2023/04/14 11:15:14;;;;;;;3.85;3.10;;;;;;;;;;5073894;28;20028;-64
2023/04/14 11:17:43;;;;;;;3.67;3.10;;;;;;;;;;5092178;28;20494;-63
2023/04/14 11:20:27;;;;;;;4.30;2.92;;;;;;;;;;5092152;28;20441;-63
2023/04/14 11:22:57;;;;;;;2.92;2.70;;;;;;;;;;5092414;28;20375;-64
2023/04/14 11:25:23;;;;;;;3.40;3.10;;;;;;;;;;5092053;28;20035;-63
2023/04/14 11:27:48;;;;;;;3.10;2.90;;;;;;;;;;5092018;28;20237;-63
2023/04/14 11:30:16;;;;;;;3.22;2.92;;;;;;;;;;5092014;28;20058;-64
2023/04/14 11:32:50;;;;;;;3.47;3.17;;;;;;;;;;5091141;28;20062;-64
2023/04/14 11:35:16;;;;;;;3.10;2.80;;;;;;;;;;5091850;28;20111;-64
2023/04/14 11:37:43;;;;;;;3.30;2.97;;;;;;;;;;5091857;28;20050;-66
2023/04/14 11:40:13;;;;;;;3.20;2.90;;;;;;;;;;5091645;28;20042;-64
2023/04/14 11:42:52;;;;;;;3.47;3.10;;;;;;;;;;5091630;28;20471;-64
2023/04/14 11:45:18;;;;;;;3.05;2.50;;;;;;;;;;5091713;28;20165;-64
2023/04/14 11:48:04;;;;;;;3.30;2.90;;;;;;;;;;5091521;28;20476;-64
2023/04/14 11:50:37;;;;;;;3.70;3.10;;;;;;;;;;5091506;28;20028;-64
2023/04/14 11:53:10;;;;;;;4.05;3.05;;;;;;;;;;5091381;28;20028;-64
2023/04/14 11:55:40;;;;;;;2.95;2.75;;;;;;;;;;5091879;28;20085;-63
2023/04/14 11:58:05;;;;;;;3.05;2.67;;;;;;;;;;5073096;28;20080;-64
2023/04/14 12:00:31;;;;;;;3.45;2.95;;;;;;;;;;5084234;28;20037;-64
2023/04/14 12:02:57;;;;;;;3.78;2.90;;;;;;;;;;5062134;28;20035;-64
2023/04/14 12:05:30;;;;;;;3.10;2.80;;;;;;;;;;5091579;28;20020;-65
2023/04/14 12:07:59;;;;;;;2.92;2.63;;;;;;;;;;5090518;28;20032;-65
2023/04/14 12:10:25;;;;;;;3.10;2.80;;;;;;;;;;5091118;28;20020;-65
2023/04/14 12:13:07;;;;;;;3.90;2.92;;;;;;;;;;5091442;28;20071;-64
2023/04/14 12:15:38;;;;;;;5.05;2.97;;;;;;;;;;5091156;28;20059;-65
2023/04/14 12:18:09;;;;;;;3.00;2.55;;;;;;;;;;5091431;28;20407;-64
2023/04/14 12:20:46;;;;;;;5.35;2.97;;;;;;;;;;5091109;28;20059;-64
2023/04/14 12:23:12;;;;;;;4.28;3.10;;;;;;;;;;5091005;28;20044;-64
2023/04/14 12:25:39;;;;;;;4.50;2.72;;;;;;;;;;5089260;28;20475;-64
2023/04/14 12:28:05;;;;;;;5.10;2.85;;;;;;;;;;5091260;28;20012;-63
2023/04/14 12:30:35;;;;;;;15.98;3.25;;;;;;;;;;5089191;28;20425;-64
2023/04/14 12:33:11;;;;;;;18.98;3.15;;;;;;;;;;5070972;28;20044;-63
2023/04/14 12:35:37;;;;;;;4.65;3.00;;;;;;;;;;5070564;28;20067;-63
2023/04/14 12:38:13;;;;;;;4.65;2.80;;;;;;;;;;5052692;28;20567;-62
2023/04/14 12:40:42;;;;;;;5.65;2.72;;;;;;;;;;5071038;28;20029;-63
2023/04/14 12:43:08;;;;;;;4.35;2.65;;;;;;;;;;5079832;28;20040;-63
2023/04/14 12:45:45;;;;;;;6.80;3.00;;;;;;;;;;5090703;28;20123;-63
2023/04/14 12:48:16;;;;;;;6.80;2.88;;;;;;;;;;5090950;28;20024;-64
2023/04/14 12:50:42;;;;;;;8.45;3.13;;;;;;;;;;5090883;28;20486;-64
2023/04/14 12:53:26;;;;;;;6.38;2.88;;;;;;;;;;5088951;28;20024;-64
2023/04/14 12:56:14;;;;;;;8.35;2.70;;;;;;;;;;5088535;28;20074;-64
2023/04/14 12:58:42;;;;;;;6.55;3.20;;;;;;;;;;5090693;28;20111;-64
2023/04/14 13:01:09;;;;;;;6.82;2.90;;;;;;;;;;5090846;28;20039;-65
2023/04/14 13:03:50;;;;;;;11.70;2.70;;;;;;;;;;5090475;28;20053;-67
2023/04/14 13:06:16;;;;;;;;;;;;;;;;;;5091333;28;20032;-64
2023/04/14 13:08:47;;;;;;;6.40;2.90;;;;;;;;;;5090953;28;20006;-65
2023/04/14 13:11:17;;;;;;;4.90;2.80;;;;;;;;;;5088558;28;20031;-65
2023/04/14 13:13:46;;;;;;;;;;;;;;;;;;5091021;28;20024;-64
2023/04/14 13:16:15;;;;;;;6.88;2.90;;;;;;;;;;5089148;28;20038;-65
2023/04/14 13:18:41;;;;;;;5.30;2.70;;;;;;;;;;5090914;28;20071;-65
2023/04/14 13:21:06;;;;;;;10.35;2.70;;;;;;;;;;5090645;28;20059;-64
2023/04/14 13:23:32;;;;;;;7.38;2.40;;;;;;;;;;5090378;28;20097;-64
2023/04/14 13:25:59;;;;;;;3.53;2.35;;;;;;;;;;5090640;28;20031;-63
2023/04/14 13:28:25;;;;;;;4.93;2.70;;;;;;;;;;5090755;28;20032;-63
2023/04/14 13:30:53;;;;;;;3.25;2.50;;;;;;;;;;5088703;28;20036;-64
2023/04/14 13:33:19;;;;;;;4.03;2.80;;;;;;;;;;5090281;28;20468;-65
2023/04/14 13:35:45;;;;;;;10.25;2.60;;;;;;;;;;5090448;28;20069;-66
2023/04/14 13:38:11;;;;;;;2.50;2.30;;;;;;;;;;5090335;28;20036;-65
2023/04/14 13:40:37;;;;;;;4.47;2.72;;;;;;;;;;5090101;28;20044;-64
2023/04/14 13:43:03;;;;;;;5.95;2.78;;;;;;;;;;5091897;28;20540;-63
2023/04/14 13:45:29;;;;;;;4.32;2.55;;;;;;;;;;5093043;28;20028;-63
2023/04/14 13:47:55;;;;;;;3.17;2.60;;;;;;;;;;5092996;28;20066;-64
2023/04/14 13:50:21;;;;;;;2.50;2.30;;;;;;;;;;5093762;28;20058;-64
2023/04/14 13:52:47;;;;;;;2.53;2.30;;;;;;;;;;5094274;28;20493;-66
2023/04/14 13:55:12;;;;;;;3.35;2.65;;;;;;;;;;5094004;28;20165;-63
2023/04/14 13:57:38;;;;;;;2.50;2.30;;;;;;;;;;5093818;28;20487;-64
2023/04/14 14:00:06;;;;;;;4.32;2.42;;;;;;;;;;5093415;28;20034;-64
2023/04/14 14:02:32;;;;;;;5.28;2.67;;;;;;;;;;5075152;28;20024;-65
2023/04/14 14:04:59;;;;;;;2.88;2.17;;;;;;;;;;5093601;28;20490;-64
2023/04/14 14:07:25;;;;;;;2.22;2.03;;;;;;;;;;5093628;28;20421;-62
2023/04/14 14:09:50;;;;;;;2.38;2.17;;;;;;;;;;5093229;28;20028;-63
2023/04/14 14:12:16;;;;;;;2.50;2.10;;;;;;;;;;5093351;28;20024;-62
2023/04/14 14:14:42;;;;;;;2.90;2.15;;;;;;;;;;5093236;28;20036;-63
2023/04/14 14:17:08;;;;;;;3.17;2.30;;;;;;;;;;5093468;28;20093;-62
2023/04/14 14:19:34;;;;;;;2.50;2.30;;;;;;;;;;5093013;28;20028;-62
2023/04/14 14:22:00;;;;;;;3.72;2.28;;;;;;;;;;5093268;28;20047;-63
2023/04/14 14:24:27;;;;;;;3.10;2.10;;;;;;;;;;5093206;28;20468;-61
2023/04/14 14:26:52;;;;;;;4.82;2.03;;;;;;;;;;5093174;28;20078;-62
2023/04/14 14:29:18;;;;;;;2.67;2.15;;;;;;;;;;5092837;28;20453;-62
2023/04/14 14:31:43;;;;;;;2.35;1.95;;;;;;;;;;5093532;28;20103;-61
2023/04/14 14:34:09;;;;;;;4.72;1.90;;;;;;;;;;5092959;28;20488;-62
2023/04/14 14:36:34;;;;;;;1.98;1.60;;;;;;;;;;5074645;28;20028;-61
2023/04/14 14:39:00;;;;;;;2.45;1.90;;;;;;;;;;5092952;28;20020;-62
2023/04/14 14:41:26;;;;;;;2.72;1.88;;;;;;;;;;5092659;28;20020;-63
2023/04/14 14:43:51;;;;;;;3.08;1.88;;;;;;;;;;5092696;28;20036;-62
2023/04/14 14:46:17;;;;;;;2.90;2.00;;;;;;;;;;5093012;28;20031;-61
2023/04/14 14:48:42;;;;;;;2.10;1.90;;;;;;;;;;5074615;28;20836;-61